createdAt,value
2018-07-03T00:00:45.042Z,65.80
2018-07-03T00:03:13.775Z,72.70
2018-07-03T00:05:42.151Z,70.20
2018-07-03T00:08:10.678Z,70.30
2018-07-03T00:10:39.064Z,69.30
2018-07-03T00:13:07.690Z,71.60
2018-07-03T00:15:36.431Z,73.00
2018-07-03T00:18:05.219Z,67.70
2018-07-03T00:20:33.575Z,70.90
2018-07-03T00:23:02.179Z,69.10
2018-07-03T00:25:30.561Z,68.10
2018-07-03T00:27:58.942Z,72.00
2018-07-03T00:30:27.304Z,69.40
2018-07-03T00:32:55.947Z,71.00
2018-07-03T00:35:24.895Z,75.60
2018-07-03T00:37:53.343Z,76.90
2018-07-03T00:40:21.959Z,76.40
2018-07-03T00:42:50.334Z,73.20
2018-07-03T00:45:18.688Z,72.40
2018-07-03T00:47:47.252Z,71.30
2018-07-03T00:50:18.137Z,68.30
2018-07-03T00:52:48.135Z,68.10
2018-07-03T00:55:16.611Z,66.20
2018-07-03T00:57:45.240Z,66.80
2018-07-03T01:00:25.029Z,66.20
2018-07-03T01:02:53.639Z,67.30
2018-07-03T01:05:22.323Z,71.90
2018-07-03T01:07:51.323Z,73.60
2018-07-03T01:10:20.011Z,68.20
2018-07-03T01:12:48.431Z,72.80
2018-07-03T01:15:16.804Z,67.00
2018-07-03T01:17:45.147Z,67.50
2018-07-03T01:20:13.753Z,66.70
2018-07-03T01:22:42.128Z,66.30
2018-07-03T01:25:10.508Z,66.00
2018-07-03T01:27:39.898Z,65.30
2018-07-03T01:30:08.563Z,65.30
2018-07-03T01:32:37.395Z,65.50
2018-07-03T01:35:05.775Z,65.60
2018-07-03T01:37:34.179Z,66.30
2018-07-03T01:40:02.892Z,66.80
2018-07-03T01:42:31.271Z,67.20
2018-07-03T01:44:59.659Z,65.60
2018-07-03T01:47:28.036Z,66.70
2018-07-03T01:49:56.720Z,69.80
2018-07-03T01:52:25.096Z,68.60
2018-07-03T01:54:53.451Z,67.00
2018-07-03T01:57:22.108Z,66.70
2018-07-03T01:59:50.487Z,65.50
2018-07-03T02:02:18.963Z,65.60
2018-07-03T02:04:47.960Z,66.20
2018-07-03T02:07:16.392Z,65.20
2018-07-03T02:09:44.900Z,65.50
2018-07-03T02:12:13.659Z,66.00
2018-07-03T02:14:42.003Z,65.30
2018-07-03T02:17:10.631Z,65.40
2018-07-03T02:19:39.544Z,65.10
2018-07-03T02:22:08.195Z,64.90
2018-07-03T02:24:36.595Z,65.80
2018-07-03T02:27:04.951Z,68.30
2018-07-03T02:29:33.295Z,72.60
2018-07-03T02:32:02.016Z,74.30
2018-07-03T02:34:30.641Z,71.20
2018-07-03T02:36:59.000Z,76.90
2018-07-03T02:39:27.715Z,80.20
2018-07-03T02:41:56.080Z,78.80
2018-07-03T02:44:25.036Z,83.20
2018-07-03T02:46:53.744Z,86.90
2018-07-03T02:49:22.115Z,88.90
2018-07-03T02:51:50.508Z,88.50
2018-07-03T02:54:19.163Z,88.30
2018-07-03T02:56:47.615Z,89.10
2018-07-03T02:59:16.007Z,90.00
2018-07-03T03:01:44.372Z,90.40
2018-07-03T03:04:13.023Z,91.90
2018-07-03T03:06:44.330Z,90.50
2018-07-03T03:09:13.076Z,94.00
2018-07-03T03:11:43.519Z,90.60
2018-07-03T03:14:12.148Z,88.60
2018-07-03T03:16:42.688Z,86.20
2018-07-03T03:19:12.408Z,88.60
2018-07-03T03:21:40.795Z,87.80
2018-07-03T03:24:09.747Z,90.50
2018-07-03T03:26:38.140Z,90.60
2018-07-03T03:29:06.507Z,91.60
2018-07-03T03:31:34.883Z,91.80
2018-07-03T03:34:03.240Z,92.90
2018-07-03T03:36:32.139Z,92.80
2018-07-03T03:39:01.039Z,93.40
2018-07-03T03:41:29.772Z,94.30
2018-07-03T03:43:58.607Z,94.20
2018-07-03T03:46:26.964Z,94.30
2018-07-03T03:48:55.575Z,95.20
2018-07-03T03:51:24.199Z,96.90
2018-07-03T03:53:52.650Z,97.50
2018-07-03T03:56:21.241Z,97.60
2018-07-03T03:58:49.611Z,98.80
2018-07-03T04:01:18.483Z,99.90
2018-07-03T04:03:46.898Z,99.50
2018-07-03T04:06:15.315Z,99.70
2018-07-03T04:08:43.675Z,99.20
2018-07-03T04:11:12.059Z,99.90
2018-07-03T04:13:40.511Z,99.90
2018-07-03T04:16:09.190Z,99.90
2018-07-03T04:18:37.543Z,99.90
2018-07-03T04:21:07.176Z,99.90
2018-07-03T04:23:36.783Z,99.90
2018-07-03T04:26:05.655Z,99.90
2018-07-03T04:28:34.687Z,99.90
2018-07-03T04:31:03.748Z,99.90
2018-07-03T04:33:32.163Z,99.90
2018-07-03T04:36:00.839Z,99.90
2018-07-03T04:38:29.293Z,99.90
2018-07-03T04:41:00.443Z,99.90
2018-07-03T04:43:28.819Z,99.90
2018-07-03T04:45:57.188Z,99.90
2018-07-03T04:48:26.281Z,99.90
2018-07-03T04:50:55.143Z,99.90
2018-07-03T04:53:24.495Z,99.90
2018-07-03T04:55:52.840Z,99.90
2018-07-03T04:58:21.859Z,99.90
2018-07-03T05:00:50.523Z,99.90
2018-07-03T05:03:19.164Z,99.90
2018-07-03T05:05:47.811Z,99.90
2018-07-03T05:08:17.281Z,99.90
2018-07-03T05:10:45.899Z,99.90
2018-07-03T05:13:14.599Z,99.90
2018-07-03T05:15:43.263Z,99.90
2018-07-03T05:18:11.640Z,99.20
2018-07-03T05:20:39.995Z,96.40
2018-07-03T05:23:08.396Z,93.80
2018-07-03T05:25:37.068Z,93.70
2018-07-03T05:28:05.723Z,92.60
2018-07-03T05:30:34.491Z,91.70
2018-07-03T05:33:02.927Z,91.90
2018-07-03T05:35:31.303Z,90.90
2018-07-03T05:38:00.131Z,84.80
2018-07-03T05:40:28.499Z,86.30
2018-07-03T05:42:56.902Z,84.10
2018-07-03T05:45:25.275Z,81.50
2018-07-03T05:47:53.903Z,83.00
2018-07-03T05:50:22.276Z,77.30
2018-07-03T05:52:50.757Z,73.70
2018-07-03T05:55:19.177Z,72.40
2018-07-03T05:57:48.024Z,70.50
2018-07-03T06:00:17.785Z,71.30
2018-07-03T06:02:46.488Z,67.80
2018-07-03T06:05:15.243Z,69.80
2018-07-03T06:07:44.514Z,70.30
2018-07-03T06:10:13.052Z,69.40
2018-07-03T06:12:41.675Z,67.90
2018-07-03T06:15:10.368Z,68.20
2018-07-03T06:17:38.887Z,68.60
2018-07-03T06:20:09.211Z,65.20
2018-07-03T06:22:37.859Z,63.50
2018-07-03T06:25:06.503Z,61.20
2018-07-03T06:27:35.151Z,60.90
2018-07-03T06:30:03.911Z,62.20
2018-07-03T06:32:32.596Z,63.90
2018-07-03T06:35:00.978Z,63.40
2018-07-03T06:37:29.335Z,63.20
2018-07-03T06:39:57.755Z,64.20
2018-07-03T06:42:26.595Z,66.20
2018-07-03T06:44:55.026Z,62.60
2018-07-03T06:47:23.667Z,62.60
2018-07-03T06:49:54.405Z,59.60
2018-07-03T06:52:22.927Z,58.60
2018-07-03T06:54:51.419Z,59.00
2018-07-03T06:57:19.854Z,57.10
2018-07-03T06:59:48.219Z,56.20
2018-07-03T07:02:16.619Z,57.30
2018-07-03T07:04:45.015Z,56.00
2018-07-03T07:07:13.699Z,58.50
2018-07-03T07:09:42.830Z,56.20
2018-07-03T07:12:11.165Z,57.30
2018-07-03T07:14:39.527Z,55.70
2018-07-03T07:17:08.132Z,56.30
2018-07-03T07:19:36.519Z,54.80
2018-07-03T07:22:04.899Z,52.30
2018-07-03T07:24:34.172Z,50.80
2018-07-03T07:27:03.040Z,49.40
2018-07-03T07:29:31.424Z,49.20
2018-07-03T07:32:00.121Z,49.30
2018-07-03T07:34:28.608Z,50.50
2018-07-03T07:36:57.404Z,50.90
2018-07-03T07:39:25.764Z,49.00
2018-07-03T07:41:54.191Z,47.70
2018-07-03T07:44:22.846Z,48.90
2018-07-03T07:46:51.702Z,46.80
2018-07-03T07:49:20.823Z,47.10
2018-07-03T07:51:49.327Z,47.10
2018-07-03T07:54:18.289Z,49.10
2018-07-03T07:56:47.013Z,51.80
2018-07-03T07:59:15.462Z,51.60
2018-07-03T08:01:44.194Z,50.20
2018-07-03T08:04:13.435Z,52.30
2018-07-03T08:06:43.919Z,49.30
2018-07-03T08:09:13.731Z,49.70
2018-07-03T08:11:42.211Z,52.50
2018-07-03T08:14:12.047Z,45.10
2018-07-03T08:19:09.593Z,45.50
2018-07-03T08:21:38.093Z,46.10
2018-07-03T08:24:06.852Z,46.50
2018-07-03T08:26:35.670Z,45.40
2018-07-03T08:31:32.583Z,47.00
2018-07-03T08:34:01.273Z,47.40
2018-07-03T08:36:29.939Z,47.30
2018-07-03T08:38:59.020Z,46.00
2018-07-03T08:41:28.031Z,47.40
2018-07-03T08:43:57.123Z,45.10
2018-07-03T08:46:25.708Z,47.20
2018-07-03T08:48:54.392Z,45.90
2018-07-03T08:51:22.755Z,43.30
2018-07-03T08:53:51.161Z,48.20
2018-07-03T08:56:19.648Z,45.90
2018-07-03T08:58:50.383Z,46.20
2018-07-03T09:01:20.458Z,46.70
2018-07-03T09:03:50.919Z,43.30
2018-07-03T09:06:21.145Z,45.70
2018-07-03T09:08:51.710Z,44.60
2018-07-03T09:11:21.466Z,45.30
2018-07-03T09:13:51.377Z,45.20
2018-07-03T09:16:22.129Z,44.90
2018-07-03T09:18:52.017Z,45.70
2018-07-03T09:21:20.375Z,45.80
2018-07-03T09:23:48.807Z,44.40
2018-07-03T09:26:17.260Z,44.50
2018-07-03T09:28:45.647Z,46.00
2018-07-03T09:31:14.252Z,48.20
2018-07-03T09:33:42.979Z,46.50
2018-07-03T09:36:11.354Z,45.60
2018-07-03T09:38:40.882Z,46.50
2018-07-03T09:41:09.303Z,44.50
2018-07-03T09:43:38.095Z,43.10
2018-07-03T09:46:06.775Z,44.60
2018-07-03T09:48:35.467Z,43.80
2018-07-03T09:51:04.127Z,43.40
2018-07-03T09:53:33.278Z,45.30
2018-07-03T09:56:01.787Z,44.20
2018-07-03T09:58:30.579Z,43.40
2018-07-03T10:00:58.995Z,42.60
2018-07-03T10:03:28.506Z,44.00
2018-07-03T10:05:59.426Z,44.30
2018-07-03T10:08:29.872Z,46.10
2018-07-03T10:10:58.235Z,42.40
2018-07-03T10:13:26.591Z,42.50
2018-07-03T10:15:54.979Z,41.80
2018-07-03T10:18:23.580Z,43.10
2018-07-03T10:20:51.963Z,43.30
2018-07-03T10:23:20.380Z,42.90
2018-07-03T10:28:16.991Z,40.80
2018-07-03T10:30:45.647Z,45.70
2018-07-03T10:33:14.044Z,42.00
2018-07-03T10:35:43.119Z,44.10
2018-07-03T10:38:11.627Z,48.20
2018-07-03T10:40:40.013Z,48.70
2018-07-03T10:43:08.411Z,43.90
2018-07-03T10:45:36.819Z,43.40
2018-07-03T10:48:07.212Z,42.00
2018-07-03T10:50:36.087Z,41.00
2018-07-03T10:53:04.471Z,42.00
2018-07-03T10:55:32.999Z,40.60
2018-07-03T10:58:01.371Z,42.50
2018-07-03T11:00:30.356Z,40.90
2018-07-03T11:02:58.771Z,39.50
2018-07-03T11:05:27.402Z,46.30
2018-07-03T11:07:55.995Z,43.60
2018-07-03T11:10:24.388Z,40.90
2018-07-03T11:12:52.837Z,41.00
2018-07-03T11:15:21.515Z,42.50
2018-07-03T11:17:49.915Z,45.50
2018-07-03T11:22:46.703Z,52.90
2018-07-03T11:25:15.631Z,48.40
2018-07-03T11:27:44.292Z,43.50
2018-07-03T11:30:12.742Z,42.10
2018-07-03T11:32:41.151Z,43.20
2018-07-03T11:35:10.179Z,43.40
2018-07-03T11:37:38.801Z,45.60
2018-07-03T11:40:07.167Z,39.90
2018-07-03T11:42:35.878Z,39.00
2018-07-03T11:45:05.304Z,39.70
2018-07-03T11:47:33.927Z,41.30
2018-07-03T11:50:02.367Z,40.60
2018-07-03T11:52:31.373Z,39.20
2018-07-03T11:55:00.336Z,40.10
2018-07-03T11:57:28.719Z,37.60
2018-07-03T11:59:57.368Z,38.00
2018-07-03T12:02:26.280Z,41.50
2018-07-03T12:04:54.675Z,41.10
2018-07-03T12:07:23.043Z,41.00
2018-07-03T12:09:51.411Z,43.70
2018-07-03T12:12:19.784Z,48.10
2018-07-03T12:14:48.143Z,47.50
2018-07-03T12:19:45.523Z,46.60
2018-07-03T12:22:14.139Z,48.70
2018-07-03T12:24:42.867Z,44.80
2018-07-03T12:27:11.503Z,43.40
2018-07-03T12:29:39.897Z,42.20
2018-07-03T12:32:08.299Z,40.20
2018-07-03T12:34:36.711Z,41.90
2018-07-03T12:37:05.427Z,43.60
2018-07-03T12:39:37.151Z,44.40
2018-07-03T12:44:34.129Z,44.80
2018-07-03T12:47:02.519Z,46.70
2018-07-03T12:49:31.175Z,44.80
2018-07-03T12:54:27.602Z,46.20
2018-07-03T12:56:57.007Z,44.80
2018-07-03T12:59:25.952Z,44.90
2018-07-03T13:01:54.333Z,45.40
2018-07-03T13:04:22.727Z,46.00
2018-07-03T13:06:51.095Z,46.80
2018-07-03T13:09:19.511Z,46.20
2018-07-03T13:11:47.892Z,47.40
2018-07-03T13:16:44.603Z,48.30
2018-07-03T13:19:13.233Z,51.80
2018-07-03T13:21:41.675Z,53.10
2018-07-03T13:24:10.271Z,53.20
2018-07-03T13:26:39.236Z,54.10
2018-07-03T13:29:08.230Z,53.90
2018-07-03T13:31:36.647Z,54.20
2018-07-03T13:34:06.093Z,53.90
2018-07-03T13:36:34.923Z,52.20
2018-07-03T13:39:03.805Z,51.30
2018-07-03T13:41:32.263Z,51.20
2018-07-03T13:44:00.891Z,51.70
2018-07-03T13:46:29.244Z,51.90
2018-07-03T13:48:57.648Z,54.10
2018-07-03T13:51:26.068Z,55.00
2018-07-03T13:53:54.431Z,55.00
2018-07-03T13:56:22.847Z,54.70
2018-07-03T13:58:51.540Z,54.90
2018-07-03T14:01:19.931Z,54.80
2018-07-03T14:03:48.311Z,55.50
2018-07-03T14:06:17.030Z,54.50
2018-07-03T14:08:45.670Z,54.40
2018-07-03T14:11:14.100Z,53.80
2018-07-03T14:13:42.712Z,54.90
2018-07-03T14:16:11.504Z,53.60
2018-07-03T14:18:40.196Z,55.10
2018-07-03T14:21:08.622Z,53.90
2018-07-03T14:23:37.266Z,54.50
2018-07-03T14:26:05.699Z,54.30
2018-07-03T14:28:34.047Z,55.10
2018-07-03T14:31:02.492Z,52.30
2018-07-03T14:33:30.856Z,52.30
2018-07-03T14:35:59.280Z,51.40
2018-07-03T14:38:28.263Z,53.50
2018-07-03T14:40:56.666Z,53.60
2018-07-03T14:43:25.024Z,52.60
2018-07-03T14:45:53.943Z,53.00
2018-07-03T14:48:22.627Z,51.90
2018-07-03T14:50:51.270Z,54.60
2018-07-03T14:53:19.947Z,52.70
2018-07-03T14:55:52.148Z,53.40
2018-07-03T14:58:21.139Z,52.80
2018-07-03T15:00:49.998Z,53.60
2018-07-03T15:03:18.679Z,53.60
2018-07-03T15:05:47.544Z,54.40
2018-07-03T15:08:16.279Z,55.30
2018-07-03T15:10:45.319Z,56.20
2018-07-03T15:13:13.760Z,55.30
2018-07-03T15:15:42.132Z,55.80
2018-07-03T15:18:12.683Z,55.50
2018-07-03T15:20:41.237Z,58.10
2018-07-03T15:23:09.643Z,56.40
2018-07-03T15:25:38.019Z,57.90
2018-07-03T15:28:06.659Z,56.30
2018-07-03T15:30:35.347Z,55.90
2018-07-03T15:33:03.735Z,56.80
2018-07-03T15:35:32.368Z,55.40
2018-07-03T15:38:00.755Z,56.40
2018-07-03T15:40:29.263Z,54.90
2018-07-03T15:42:57.615Z,55.70
2018-07-03T15:45:26.324Z,54.60
2018-07-03T15:47:55.376Z,56.10
2018-07-03T15:50:24.045Z,54.20
2018-07-03T15:52:52.415Z,55.60
2018-07-03T15:55:20.815Z,54.20
2018-07-03T16:00:17.276Z,55.30
2018-07-03T16:03:56.295Z,56.20
2018-07-03T16:06:36.159Z,55.10
2018-07-03T16:09:09.615Z,55.00
2018-07-03T16:11:39.043Z,56.30
2018-07-03T16:14:07.911Z,56.20
2018-07-03T16:16:36.747Z,55.40
2018-07-03T16:19:11.118Z,54.30
2018-07-03T16:21:39.632Z,53.30
2018-07-03T16:24:08.880Z,53.30
2018-07-03T16:26:37.267Z,53.70
2018-07-03T16:29:08.024Z,53.70
2018-07-03T16:31:36.398Z,54.10
2018-07-03T16:34:04.929Z,55.10
2018-07-03T16:36:33.630Z,54.40
2018-07-03T16:39:02.669Z,53.90
2018-07-03T16:41:31.647Z,54.50
2018-07-03T16:44:00.307Z,53.80
2018-07-03T16:46:29.499Z,54.40
2018-07-03T16:48:57.855Z,54.70
2018-07-03T16:51:26.724Z,55.30
2018-07-03T16:56:23.935Z,54.30
2018-07-03T16:58:52.467Z,54.30
2018-07-03T17:01:20.824Z,55.10
2018-07-03T17:03:49.436Z,53.50
2018-07-03T17:06:18.351Z,54.90
2018-07-03T17:08:48.267Z,54.40
2018-07-03T17:11:16.686Z,55.40
2018-07-03T17:13:45.263Z,55.20
2018-07-03T17:16:13.929Z,55.30
2018-07-03T17:18:47.835Z,55.90
2018-07-03T17:21:16.239Z,55.80
2018-07-03T17:23:44.703Z,55.30
2018-07-03T17:26:13.127Z,56.30
2018-07-03T17:28:42.284Z,55.00
2018-07-03T17:31:10.758Z,54.50
2018-07-03T17:33:39.200Z,54.10
2018-07-03T17:36:07.688Z,54.60
2018-07-03T17:38:36.603Z,54.10
2018-07-03T17:41:16.755Z,54.80
2018-07-03T17:44:06.163Z,55.00
2018-07-03T17:46:34.648Z,54.30
2018-07-03T17:49:03.147Z,55.30
2018-07-03T17:51:32.108Z,54.90
2018-07-03T17:54:00.475Z,55.40
2018-07-03T17:56:28.962Z,55.30
2018-07-03T17:58:57.379Z,55.30
2018-07-03T18:01:25.819Z,56.70
2018-07-03T18:03:54.211Z,55.90
2018-07-03T18:06:22.603Z,55.20
2018-07-03T18:08:51.652Z,56.10
2018-07-03T18:11:21.116Z,55.10
2018-07-03T18:13:50.309Z,55.50
2018-07-03T18:16:19.691Z,57.10
2018-07-03T18:18:53.572Z,57.40
2018-07-03T18:21:21.995Z,56.40
2018-07-03T18:23:50.439Z,56.30
2018-07-03T18:26:19.154Z,57.00
2018-07-03T18:28:47.671Z,58.70
2018-07-03T18:31:16.156Z,60.50
2018-07-03T18:33:44.868Z,61.40
2018-07-03T18:36:13.439Z,60.10
2018-07-03T18:38:41.803Z,61.30
2018-07-03T18:41:10.509Z,60.80
2018-07-03T18:43:39.224Z,62.60
2018-07-03T18:46:07.905Z,62.50
2018-07-03T18:48:36.286Z,61.00
2018-07-03T18:51:04.705Z,60.20
2018-07-03T18:53:33.068Z,60.50
2018-07-03T18:56:01.687Z,60.20
2018-07-03T18:58:30.740Z,60.00
2018-07-03T19:00:59.114Z,59.00
2018-07-03T19:03:27.570Z,58.80
2018-07-03T19:05:55.911Z,60.20
2018-07-03T19:08:24.599Z,61.20
2018-07-03T19:10:53.287Z,61.40
2018-07-03T19:13:22.088Z,62.10
2018-07-03T19:15:50.687Z,62.60
2018-07-03T19:18:19.314Z,62.90
2018-07-03T19:20:47.715Z,64.00
2018-07-03T19:23:16.515Z,60.20
2018-07-03T19:25:45.401Z,57.90
2018-07-03T19:28:13.920Z,60.20
2018-07-03T19:30:42.527Z,61.10
2018-07-03T19:33:11.171Z,63.00
2018-07-03T19:35:39.936Z,63.10
2018-07-03T19:38:08.630Z,64.10
2018-07-03T19:40:37.167Z,64.60
2018-07-03T19:43:28.759Z,65.50
2018-07-03T19:45:58.003Z,66.60
2018-07-03T19:48:26.923Z,66.50
2018-07-03T19:50:55.740Z,66.40
2018-07-03T19:53:24.387Z,67.80
2018-07-03T19:55:54.045Z,68.00
2018-07-03T19:58:22.815Z,68.80
2018-07-03T20:00:52.925Z,67.20
2018-07-03T20:03:21.394Z,67.70
2018-07-03T20:05:49.829Z,67.90
2018-07-03T20:08:18.204Z,68.00
2018-07-03T20:10:46.640Z,66.70
2018-07-03T20:13:16.685Z,66.60
2018-07-03T20:15:45.424Z,65.10
2018-07-03T20:18:14.447Z,66.00
2018-07-03T20:20:42.859Z,66.90
2018-07-03T20:23:11.846Z,69.00
2018-07-03T20:25:40.491Z,72.20
2018-07-03T20:28:09.631Z,72.30
2018-07-03T20:33:06.575Z,73.00
2018-07-03T20:35:36.732Z,73.50
2018-07-03T20:38:07.367Z,73.00
2018-07-03T20:41:08.355Z,74.60
2018-07-03T20:43:38.344Z,75.80
2018-07-03T20:46:07.767Z,77.10
2018-07-03T20:48:36.424Z,78.30
2018-07-03T20:51:04.864Z,80.20
2018-07-03T20:53:33.593Z,83.60
2018-07-03T20:56:05.125Z,89.10
2018-07-03T20:58:33.695Z,89.50
2018-07-03T21:03:30.482Z,90.50
2018-07-03T21:05:59.526Z,90.70
2018-07-03T21:08:27.883Z,91.40
2018-07-03T21:10:56.588Z,92.60
2018-07-03T21:13:25.220Z,93.40
2018-07-03T21:15:53.572Z,94.20
2018-07-03T21:18:21.933Z,94.60
2018-07-03T21:20:50.327Z,95.60
2018-07-03T21:25:47.011Z,97.70
2018-07-03T21:28:15.407Z,99.30
2018-07-03T21:30:44.075Z,99.90
2018-07-03T21:33:13.180Z,99.90
2018-07-03T21:35:41.634Z,99.90
2018-07-03T21:38:10.809Z,99.90
2018-07-03T21:40:39.386Z,99.90
2018-07-03T21:43:07.856Z,99.90
2018-07-03T21:45:36.903Z,99.90
2018-07-03T21:48:05.258Z,99.90
2018-07-03T21:50:33.935Z,99.90
2018-07-03T21:53:02.859Z,99.90
2018-07-03T21:55:31.223Z,99.90
2018-07-03T21:57:59.875Z,99.90
2018-07-03T22:00:36.794Z,99.90
2018-07-03T22:03:07.116Z,99.90
2018-07-03T22:05:36.467Z,99.90
2018-07-03T22:08:05.399Z,99.90
2018-07-03T22:10:34.163Z,99.90
2018-07-03T22:15:31.180Z,99.90
2018-07-03T22:17:59.551Z,99.90
2018-07-03T22:20:28.777Z,99.90
2018-07-03T22:25:25.291Z,99.90
2018-07-03T22:27:53.796Z,99.90
2018-07-03T22:30:22.220Z,99.90
2018-07-03T22:32:50.596Z,99.90
2018-07-03T22:37:47.623Z,99.90
2018-07-03T22:40:16.353Z,99.90
2018-07-03T22:42:44.963Z,99.90
2018-07-03T22:45:13.662Z,99.90
2018-07-03T22:47:42.436Z,99.90
2018-07-03T22:50:11.180Z,99.90
2018-07-03T22:52:39.811Z,99.90
2018-07-03T22:55:08.473Z,99.90
2018-07-03T22:57:37.083Z,99.90
2018-07-03T23:00:05.891Z,99.90
2018-07-03T23:02:34.855Z,99.90
2018-07-03T23:05:03.439Z,99.90
2018-07-03T23:07:31.839Z,99.90
2018-07-03T23:10:00.503Z,99.90
2018-07-03T23:12:29.187Z,99.90
2018-07-03T23:14:57.819Z,99.90
2018-07-03T23:20:06.259Z,99.90
2018-07-03T23:22:34.955Z,99.90
2018-07-03T23:25:03.356Z,99.90
2018-07-03T23:27:32.044Z,99.90
2018-07-03T23:30:00.402Z,99.90
2018-07-03T23:32:28.831Z,99.90
2018-07-03T23:34:57.486Z,99.90
2018-07-03T23:37:25.815Z,99.90
2018-07-03T23:39:54.863Z,99.90
2018-07-03T23:42:23.756Z,99.90
2018-07-03T23:44:52.111Z,99.90
2018-07-03T23:47:32.151Z,99.90
2018-07-03T23:50:12.031Z,99.90
2018-07-03T23:52:52.183Z,99.90
2018-07-03T23:55:31.960Z,99.90
2018-07-03T23:58:11.727Z,99.90
